Nissho Maru No.18 — JL6369 — position and weather

sailwx.info

Track history (hours):
 
Tides and Currents Weather Stations Pressure Air Temp Water Temp Dewpoint Dewpoint Depression Visibility Wind Speed Wind Dir Waves Ship Positions

Nissho Maru No.18

Last reported at 2016-Jun-27 08:18 UTC. Time now 2016-Jun-27 15:02 UTC.
Position N 35°04' E 139°34'.

Length 65 m; draft 4 m.

Type: Tanker. MMSI: 431500465.

Date/timePositionNaut miles runAvg speedWind from/ knotsBaromVisibWave heightAir tempDewpointWater temp
2016-Jun-27 08:18N 35°04' E 139°34'7 9.4
2016-Jun-27 07:31N 35°08' E 139°42'9 9.4
2016-Jun-27 06:33N 35°16' E 139°46'9 9.1
2016-Jun-27 05:33N 35°25' E 139°44'1010.1
2016-Jun-27 04:33N 35°30' E 139°55'5 5.3
2016-Jun-27 03:33N 35°29' E 140°01'0 0.0
2016-Jun-27 02:33N 35°29' E 140°01'0 0.0
2016-Jun-27 01:33N 35°29' E 140°01'0 0.0
2016-Jun-27 00:32N 35°29' E 140°01'0 0.0
2016-Jun-26 23:33N 35°29' E 140°01'1 1.2
2016-Jun-26 22:33N 35°29' E 139°60'6 5.3
2016-Jun-26 21:31N 35°28' E 139°53'0 0.0
2016-Jun-26 20:31N 35°28' E 139°53'0 0.0
2016-Jun-26 19:31N 35°28' E 139°53'1 1.0
2016-Jun-26 18:34N 35°28' E 139°52'10 9.6
2016-Jun-26 17:33N 35°21' E 139°45'9 9.4
2016-Jun-26 16:33N 35°12' E 139°47'10 9.9
2016-Jun-26 15:32N 35°03' E 139°41'237 8.4
2016-Jun-25 11:25N 34°15' E 134°59'910.0
2016-Jun-25 10:32N 34°23' E 134°60'1010.0
2016-Jun-25 09:33N 34°33' E 135°02'11 9.8
2016-Jun-25 08:29N 34°38' E 134°51'5 0.7
2016-Jun-25 00:06N 34°41' E 134°45'8 9.1
2016-Jun-24 23:14N 34°38' E 134°54'6 9.0
2016-Jun-24 22:33N 34°37' E 135°01'6 5.9
2016-Jun-24 21:34N 34°32' E 135°04'9 9.2
2016-Jun-24 20:33N 34°23' E 135°01'8 8.3
2016-Jun-24 19:33N 34°15' E 134°59'10 9.1
2016-Jun-24 18:26N 34°05' E 135°01'229 7.8
2016-Jun-23 13:15N 35°02' E 139°30'10 9.9
2016-Jun-23 12:11N 35°07' E 139°42'6 9.8
2016-Jun-23 11:33N 35°12' E 139°46'9 9.4
2016-Jun-23 10:33N 35°21' E 139°42'9 9.2
2016-Jun-23 09:33N 35°28' E 139°49'9 9.4
2016-Jun-23 08:33N 35°29' E 140°01'0 0.5
2016-Jun-23 07:33N 35°29' E 140°01'0 0.0
2016-Jun-23 05:33N 35°29' E 140°01'0 0.0
2016-Jun-23 04:33N 35°29' E 140°01'1 0.6
2016-Jun-23 03:33N 35°29' E 140°00'5 4.9
2016-Jun-23 02:33N 35°28' E 139°54'0 0.0
2016-Jun-23 01:33N 35°28' E 139°54'0 0.0
2016-Jun-23 00:33N 35°28' E 139°54'0 0.0
2016-Jun-22 23:33N 35°28' E 139°54'0 0.0
2016-Jun-22 22:30N 35°28' E 139°54'0 0.0
2016-Jun-22 21:30N 35°28' E 139°54'0 0.0
2016-Jun-22 20:33N 35°28' E 139°54'6 5.9
2016-Jun-22 19:33N 35°26' E 139°48'10 9.6
2016-Jun-22 18:33N 35°16' E 139°46'1010.2
2016-Jun-22 17:33N 35°06' E 139°45'240 8.4
2016-Jun-21 13:05N 34°17' E 134°59'4 7.0
2016-Jun-21 12:31N 34°21' E 134°60'8 8.7
2016-Jun-21 11:33N 34°29' E 135°01'7 7.4
2016-Jun-21 10:33N 34°36' E 135°02'7 6.9
2016-Jun-21 09:31N 34°37' E 134°53'7 1.0
2016-Jun-21 02:32N 34°40' E 134°46'9 9.2
2016-Jun-21 01:33N 34°37' E 134°57'9 8.8
2016-Jun-21 00:34N 34°33' E 135°06'10 9.8
2016-Jun-20 23:33N 34°23' E 135°09'1 0.3
2016-Jun-20 21:25N 34°23' E 135°10'0 0.0
2016-Jun-20 20:31N 34°23' E 135°10'0 0.0
2016-Jun-20 19:19N 34°23' E 135°10'0 0.1
2016-Jun-20 18:25N 34°23' E 135°10'0 0.1
2016-Jun-20 17:19N 34°23' E 135°10'7 7.6
2016-Jun-20 16:27N 34°19' E 135°04'8 8.6
2016-Jun-20 15:33N 34°11' E 135°03'226 7.5
2016-Jun-19 09:12N 35°02' E 139°31'15 9.1
2016-Jun-19 07:33N 35°11' E 139°45'8 8.2
2016-Jun-19 06:33N 35°19' E 139°43'8 7.9
2016-Jun-19 05:33N 35°27' E 139°47'9 8.8
2016-Jun-19 04:33N 35°30' E 139°57'4 3.8
2016-Jun-19 03:32N 35°29' E 140°01'0 0.0
2016-Jun-19 02:33N 35°29' E 140°01'0 0.0
2016-Jun-19 01:33N 35°29' E 140°01'0 0.0
2016-Jun-19 00:33N 35°29' E 140°01'0 0.0
2016-Jun-18 23:33N 35°29' E 140°01'0 0.5
2016-Jun-18 22:33N 35°29' E 140°01'4 3.9
2016-Jun-18 21:31N 35°29' E 139°56'0 0.0
2016-Jun-18 20:31N 35°29' E 139°56'0 0.0
2016-Jun-18 19:31N 35°29' E 139°56'0 0.0
2016-Jun-18 18:31N 35°29' E 139°56'0 0.0
2016-Jun-18 17:31N 35°29' E 139°56'0 0.1
2016-Jun-18 16:31N 35°29' E 139°56'0 0.0
2016-Jun-18 15:31N 35°29' E 139°56'0 0.0
2016-Jun-18 14:31N 35°29' E 139°56'6 6.5
2016-Jun-18 13:33N 35°26' E 139°49'9 9.4
2016-Jun-18 12:33N 35°17' E 139°46'10 9.9
2016-Jun-18 11:33N 35°07' E 139°45'2110.5
2016-Jun-18 09:33N 34°54' E 139°26'  
Track history (hours):
 
Tides and Currents Weather Stations Pressure Air Temp Water Temp Dewpoint Dewpoint Depression Visibility Wind Speed Wind Dir Waves Ship Positions

Nissho Maru No.18

Last reported at 2016-Jun-27 08:18 UTC. Time now 2016-Jun-27 15:02 UTC.
Position N 35°04' E 139°34'.

Length 65 m; draft 4 m.

Type: Tanker. MMSI: 431500465.

Date/timePositionNaut miles runAvg speedWind from/ knotsBaromVisibWave heightAir tempDewpointWater temp
2016-Jun-27 08:18N 35°04' E 139°34'7 9.4
2016-Jun-27 07:31N 35°08' E 139°42'9 9.4
2016-Jun-27 06:33N 35°16' E 139°46'9 9.1
2016-Jun-27 05:33N 35°25' E 139°44'1010.1
2016-Jun-27 04:33N 35°30' E 139°55'5 5.3
2016-Jun-27 03:33N 35°29' E 140°01'0 0.0
2016-Jun-27 02:33N 35°29' E 140°01'0 0.0
2016-Jun-27 01:33N 35°29' E 140°01'0 0.0
2016-Jun-27 00:32N 35°29' E 140°01'0 0.0
2016-Jun-26 23:33N 35°29' E 140°01'1 1.2
2016-Jun-26 22:33N 35°29' E 139°60'6 5.3
2016-Jun-26 21:31N 35°28' E 139°53'0 0.0
2016-Jun-26 20:31N 35°28' E 139°53'0 0.0
2016-Jun-26 19:31N 35°28' E 139°53'1 1.0
2016-Jun-26 18:34N 35°28' E 139°52'10 9.6
2016-Jun-26 17:33N 35°21' E 139°45'9 9.4
2016-Jun-26 16:33N 35°12' E 139°47'10 9.9
2016-Jun-26 15:32N 35°03' E 139°41'237 8.4
2016-Jun-25 11:25N 34°15' E 134°59'910.0
2016-Jun-25 10:32N 34°23' E 134°60'1010.0
2016-Jun-25 09:33N 34°33' E 135°02'11 9.8
2016-Jun-25 08:29N 34°38' E 134°51'5 0.7
2016-Jun-25 00:06N 34°41' E 134°45'8 9.1
2016-Jun-24 23:14N 34°38' E 134°54'6 9.0
2016-Jun-24 22:33N 34°37' E 135°01'6 5.9
2016-Jun-24 21:34N 34°32' E 135°04'9 9.2
2016-Jun-24 20:33N 34°23' E 135°01'8 8.3
2016-Jun-24 19:33N 34°15' E 134°59'10 9.1
2016-Jun-24 18:26N 34°05' E 135°01'229 7.8
2016-Jun-23 13:15N 35°02' E 139°30'10 9.9
2016-Jun-23 12:11N 35°07' E 139°42'6 9.8
2016-Jun-23 11:33N 35°12' E 139°46'9 9.4
2016-Jun-23 10:33N 35°21' E 139°42'9 9.2
2016-Jun-23 09:33N 35°28' E 139°49'9 9.4
2016-Jun-23 08:33N 35°29' E 140°01'0 0.5
2016-Jun-23 07:33N 35°29' E 140°01'0 0.0
2016-Jun-23 05:33N 35°29' E 140°01'0 0.0
2016-Jun-23 04:33N 35°29' E 140°01'1 0.6
2016-Jun-23 03:33N 35°29' E 140°00'5 4.9
2016-Jun-23 02:33N 35°28' E 139°54'0 0.0
2016-Jun-23 01:33N 35°28' E 139°54'0 0.0
2016-Jun-23 00:33N 35°28' E 139°54'0 0.0
2016-Jun-22 23:33N 35°28' E 139°54'0 0.0
2016-Jun-22 22:30N 35°28' E 139°54'0 0.0
2016-Jun-22 21:30N 35°28' E 139°54'0 0.0
2016-Jun-22 20:33N 35°28' E 139°54'6 5.9
2016-Jun-22 19:33N 35°26' E 139°48'10 9.6
2016-Jun-22 18:33N 35°16' E 139°46'1010.2
2016-Jun-22 17:33N 35°06' E 139°45'240 8.4
2016-Jun-21 13:05N 34°17' E 134°59'4 7.0
2016-Jun-21 12:31N 34°21' E 134°60'8 8.7
2016-Jun-21 11:33N 34°29' E 135°01'7 7.4
2016-Jun-21 10:33N 34°36' E 135°02'7 6.9
2016-Jun-21 09:31N 34°37' E 134°53'7 1.0
2016-Jun-21 02:32N 34°40' E 134°46'9 9.2
2016-Jun-21 01:33N 34°37' E 134°57'9 8.8
2016-Jun-21 00:34N 34°33' E 135°06'10 9.8
2016-Jun-20 23:33N 34°23' E 135°09'1 0.3
2016-Jun-20 21:25N 34°23' E 135°10'0 0.0
2016-Jun-20 20:31N 34°23' E 135°10'0 0.0
2016-Jun-20 19:19N 34°23' E 135°10'0 0.1
2016-Jun-20 18:25N 34°23' E 135°10'0 0.1
2016-Jun-20 17:19N 34°23' E 135°10'7 7.6
2016-Jun-20 16:27N 34°19' E 135°04'8 8.6
2016-Jun-20 15:33N 34°11' E 135°03'226 7.5
2016-Jun-19 09:12N 35°02' E 139°31'15 9.1
2016-Jun-19 07:33N 35°11' E 139°45'8 8.2
2016-Jun-19 06:33N 35°19' E 139°43'8 7.9
2016-Jun-19 05:33N 35°27' E 139°47'9 8.8
2016-Jun-19 04:33N 35°30' E 139°57'4 3.8
2016-Jun-19 03:32N 35°29' E 140°01'0 0.0
2016-Jun-19 02:33N 35°29' E 140°01'0 0.0
2016-Jun-19 01:33N 35°29' E 140°01'0 0.0
2016-Jun-19 00:33N 35°29' E 140°01'0 0.0
2016-Jun-18 23:33N 35°29' E 140°01'0 0.5
2016-Jun-18 22:33N 35°29' E 140°01'4 3.9
2016-Jun-18 21:31N 35°29' E 139°56'0 0.0
2016-Jun-18 20:31N 35°29' E 139°56'0 0.0
2016-Jun-18 19:31N 35°29' E 139°56'0 0.0
2016-Jun-18 18:31N 35°29' E 139°56'0 0.0
2016-Jun-18 17:31N 35°29' E 139°56'0 0.1
2016-Jun-18 16:31N 35°29' E 139°56'0 0.0
2016-Jun-18 15:31N 35°29' E 139°56'0 0.0
2016-Jun-18 14:31N 35°29' E 139°56'6 6.5
2016-Jun-18 13:33N 35°26' E 139°49'9 9.4
2016-Jun-18 12:33N 35°17' E 139°46'10 9.9
2016-Jun-18 11:33N 35°07' E 139°45'2110.5
2016-Jun-18 09:33N 34°54' E 139°26'  

Dump ship's entire track history